sensor_id;sensor_type;location;lat;lon;timestamp;pressure;altitude;pressure_sealevel;temperature;humidity
550;BME280;20066;48.764;9.176;2023-07-20T00:01:24;98053.16;;;22.74;41.19
550;BME280;20066;48.764;9.176;2023-07-20T00:03:52;98051.44;;;23.15;39.94
550;BME280;20066;48.764;9.176;2023-07-20T00:06:22;98057.19;;;22.87;41.12
550;BME280;20066;48.764;9.176;2023-07-20T00:08:51;98059.88;;;22.73;41.52
550;BME280;20066;48.764;9.176;2023-07-20T00:11:29;98058.63;;;22.74;41.01
550;BME280;20066;48.764;9.176;2023-07-20T00:13:57;98058.41;;;22.86;40.84
550;BME280;20066;48.764;9.176;2023-07-20T00:16:25;98058.69;;;22.64;41.13
550;BME280;20066;48.764;9.176;2023-07-20T00:18:53;98057.19;;;22.63;40.88
550;BME280;20066;48.764;9.176;2023-07-20T00:21:21;98061.09;;;22.95;40.89
550;BME280;20066;48.764;9.176;2023-07-20T00:23:49;98060.28;;;22.56;40.24
550;BME280;20066;48.764;9.176;2023-07-20T00:26:17;98058.41;;;22.62;40.33
550;BME280;20066;48.764;9.176;2023-07-20T00:28:46;98058.38;;;23.10;38.43
550;BME280;20066;48.764;9.176;2023-07-20T00:31:14;98053.34;;;23.38;38.44
550;BME280;20066;48.764;9.176;2023-07-20T00:33:42;98054.84;;;23.10;38.73
550;BME280;20066;48.764;9.176;2023-07-20T00:36:10;98045.84;;;22.94;37.98
550;BME280;20066;48.764;9.176;2023-07-20T00:38:38;98060.38;;;22.86;38.22
550;BME280;20066;48.764;9.176;2023-07-20T00:41:07;98061.91;;;22.06;40.04
550;BME280;20066;48.764;9.176;2023-07-20T00:43:35;98067.19;;;22.19;40.07
550;BME280;20066;48.764;9.176;2023-07-20T00:46:04;98070.66;;;21.77;40.74
550;BME280;20066;48.764;9.176;2023-07-20T00:48:32;98063.19;;;21.87;40.73
550;BME280;20066;48.764;9.176;2023-07-20T00:51:01;98059.56;;;22.47;39.55
550;BME280;20066;48.764;9.176;2023-07-20T00:53:30;98066.56;;;22.48;39.20
550;BME280;20066;48.764;9.176;2023-07-20T00:55:58;98060.75;;;22.22;39.87
550;BME280;20066;48.764;9.176;2023-07-20T00:58:27;98069.50;;;21.60;41.10
550;BME280;20066;48.764;9.176;2023-07-20T01:00:55;98071.16;;;22.18;40.08
550;BME280;20066;48.764;9.176;2023-07-20T01:03:24;98072.41;;;22.08;40.10
550;BME280;20066;48.764;9.176;2023-07-20T01:05:57;98075.50;;;22.34;40.22
550;BME280;20066;48.764;9.176;2023-07-20T01:08:31;98077.94;;;23.03;38.29
550;BME280;20066;48.764;9.176;2023-07-20T01:11:05;98076.59;;;22.51;39.81
550;BME280;20066;48.764;9.176;2023-07-20T01:13:33;98069.63;;;21.66;41.22
550;BME280;20066;48.764;9.176;2023-07-20T01:16:02;98074.09;;;21.96;40.55
550;BME280;20066;48.764;9.176;2023-07-20T01:18:31;98070.41;;;22.41;39.97
550;BME280;20066;48.764;9.176;2023-07-20T01:21:01;98070.91;;;21.56;41.27
550;BME280;20066;48.764;9.176;2023-07-20T01:23:45;98078.81;;;21.08;42.77
550;BME280;20066;48.764;9.176;2023-07-20T01:26:39;98073.19;;;21.57;42.32
550;BME280;20066;48.764;9.176;2023-07-20T01:29:30;98062.97;;;22.42;39.86
550;BME280;20066;48.764;9.176;2023-07-20T01:32:04;98072.16;;;22.53;39.85
550;BME280;20066;48.764;9.176;2023-07-20T01:34:34;98066.81;;;21.93;41.14
550;BME280;20066;48.764;9.176;2023-07-20T01:37:03;98072.41;;;22.64;40.10
550;BME280;20066;48.764;9.176;2023-07-20T01:39:32;98071.00;;;22.69;39.80
550;BME280;20066;48.764;9.176;2023-07-20T01:42:01;98074.16;;;22.77;40.68
550;BME280;20066;48.764;9.176;2023-07-20T01:44:28;98067.75;;;22.56;40.99
550;BME280;20066;48.764;9.176;2023-07-20T01:46:56;98064.19;;;22.64;41.17
550;BME280;20066;48.764;9.176;2023-07-20T01:49:25;98066.03;;;22.35;41.88
550;BME280;20066;48.764;9.176;2023-07-20T01:51:53;98060.44;;;21.36;43.33
550;BME280;20066;48.764;9.176;2023-07-20T01:54:21;98055.66;;;21.64;43.03
550;BME280;20066;48.764;9.176;2023-07-20T01:56:48;98065.41;;;21.56;42.91
550;BME280;20066;48.764;9.176;2023-07-20T01:59:17;98063.63;;;21.34;43.74
550;BME280;20066;48.764;9.176;2023-07-20T02:01:44;98066.50;;;21.49;43.74
550;BME280;20066;48.764;9.176;2023-07-20T02:04:12;98061.84;;;21.73;43.09
550;BME280;20066;48.764;9.176;2023-07-20T02:06:41;98075.63;;;21.46;43.76
550;BME280;20066;48.764;9.176;2023-07-20T02:09:09;98071.31;;;21.72;43.69
550;BME280;20066;48.764;9.176;2023-07-20T02:11:37;98066.34;;;20.89;44.71
550;BME280;20066;48.764;9.176;2023-07-20T02:14:04;98062.88;;;20.70;45.68
550;BME280;20066;48.764;9.176;2023-07-20T02:16:32;98067.59;;;20.20;46.60
550;BME280;20066;48.764;9.176;2023-07-20T02:19:00;98072.06;;;20.45;45.94
550;BME280;20066;48.764;9.176;2023-07-20T02:21:28;98074.22;;;20.59;45.66
550;BME280;20066;48.764;9.176;2023-07-20T02:23:57;98065.59;;;20.70;44.96
550;BME280;20066;48.764;9.176;2023-07-20T02:26:25;98069.25;;;20.85;44.83
550;BME280;20066;48.764;9.176;2023-07-20T02:28:52;98067.44;;;21.00;44.33
550;BME280;20066;48.764;9.176;2023-07-20T02:31:20;98069.94;;;20.40;45.81
550;BME280;20066;48.764;9.176;2023-07-20T02:33:48;98060.84;;;20.52;45.48
550;BME280;20066;48.764;9.176;2023-07-20T02:36:16;98063.16;;;19.74;47.24
550;BME280;20066;48.764;9.176;2023-07-20T02:38:44;98064.44;;;20.31;46.39
550;BME280;20066;48.764;9.176;2023-07-20T02:41:13;98058.28;;;20.67;44.79
550;BME280;20066;48.764;9.176;2023-07-20T02:43:41;98070.59;;;20.81;45.09
550;BME280;20066;48.764;9.176;2023-07-20T02:46:09;98081.53;;;20.62;45.53
550;BME280;20066;48.764;9.176;2023-07-20T02:48:36;98078.53;;;20.29;46.15
550;BME280;20066;48.764;9.176;2023-07-20T02:51:04;98080.56;;;19.67;47.46
550;BME280;20066;48.764;9.176;2023-07-20T02:53:34;98085.25;;;19.97;46.99
550;BME280;20066;48.764;9.176;2023-07-20T02:56:02;98068.78;;;20.10;46.49
550;BME280;20066;48.764;9.176;2023-07-20T02:58:34;98081.97;;;20.12;46.82
550;BME280;20066;48.764;9.176;2023-07-20T03:01:03;98084.25;;;20.13;46.33
550;BME280;20066;48.764;9.176;2023-07-20T03:03:31;98089.31;;;19.62;47.86
550;BME280;20066;48.764;9.176;2023-07-20T03:06:02;98080.28;;;19.74;47.63
550;BME280;20066;48.764;9.176;2023-07-20T03:08:30;98086.22;;;19.29;48.92
550;BME280;20066;48.764;9.176;2023-07-20T03:10:58;98080.69;;;19.42;48.65
550;BME280;20066;48.764;9.176;2023-07-20T03:13:26;98081.03;;;18.88;50.29
550;BME280;20066;48.764;9.176;2023-07-20T03:15:55;98088.75;;;19.67;47.47
550;BME280;20066;48.764;9.176;2023-07-20T03:18:23;98088.59;;;19.05;50.12
550;BME280;20066;48.764;9.176;2023-07-20T03:20:50;98093.09;;;19.64;48.18
550;BME280;20066;48.764;9.176;2023-07-20T03:23:18;98089.56;;;19.11;49.44
550;BME280;20066;48.764;9.176;2023-07-20T03:25:46;98086.69;;;18.93;49.98
550;BME280;20066;48.764;9.176;2023-07-20T03:28:13;98094.25;;;19.11;49.62
550;BME280;20066;48.764;9.176;2023-07-20T03:30:42;98094.97;;;18.90;50.47
550;BME280;20066;48.764;9.176;2023-07-20T03:33:11;98093.66;;;18.34;51.62
550;BME280;20066;48.764;9.176;2023-07-20T03:35:42;98090.97;;;19.16;49.84
550;BME280;20066;48.764;9.176;2023-07-20T03:38:10;98089.94;;;19.22;49.73
550;BME280;20066;48.764;9.176;2023-07-20T03:40:38;98093.50;;;19.32;49.46
550;BME280;20066;48.764;9.176;2023-07-20T03:43:06;98089.13;;;18.78;50.96
550;BME280;20066;48.764;9.176;2023-07-20T03:45:33;98098.91;;;18.89;50.84
550;BME280;20066;48.764;9.176;2023-07-20T03:48:01;98100.22;;;19.84;48.00
550;BME280;20066;48.764;9.176;2023-07-20T03:50:30;98096.00;;;20.32;47.31
550;BME280;20066;48.764;9.176;2023-07-20T03:52:59;98100.91;;;20.06;46.79
550;BME280;20066;48.764;9.176;2023-07-20T03:55:26;98105.41;;;20.31;47.06
550;BME280;20066;48.764;9.176;2023-07-20T03:57:54;98098.53;;;20.66;46.10
550;BME280;20066;48.764;9.176;2023-07-20T04:00:22;98096.75;;;20.91;45.42
550;BME280;20066;48.764;9.176;2023-07-20T04:02:50;98097.81;;;19.86;47.82
550;BME280;20066;48.764;9.176;2023-07-20T04:05:18;98107.03;;;20.59;46.27
550;BME280;20066;48.764;9.176;2023-07-20T04:07:47;98101.44;;;20.23;47.32
550;BME280;20066;48.764;9.176;2023-07-20T04:10:15;98111.50;;;20.93;45.64
550;BME280;20066;48.764;9.176;2023-07-20T04:12:43;98109.50;;;20.85;45.34
550;BME280;20066;48.764;9.176;2023-07-20T04:15:11;98111.09;;;20.06;47.56
550;BME280;20066;48.764;9.176;2023-07-20T04:17:39;98113.13;;;20.23;47.38
550;BME280;20066;48.764;9.176;2023-07-20T04:20:08;98117.66;;;20.57;46.48
550;BME280;20066;48.764;9.176;2023-07-20T04:22:36;98121.66;;;20.34;46.91
550;BME280;20066;48.764;9.176;2023-07-20T04:25:06;98116.13;;;20.47;46.33
550;BME280;20066;48.764;9.176;2023-07-20T04:27:34;98111.53;;;20.44;46.60
550;BME280;20066;48.764;9.176;2023-07-20T04:30:02;98112.28;;;21.03;45.17
550;BME280;20066;48.764;9.176;2023-07-20T04:32:30;98109.81;;;21.14;45.38
550;BME280;20066;48.764;9.176;2023-07-20T04:35:06;98112.72;;;21.47;44.71
550;BME280;20066;48.764;9.176;2023-07-20T04:37:34;98120.16;;;21.65;44.87
550;BME280;20066;48.764;9.176;2023-07-20T04:40:03;98116.00;;;20.60;46.71
550;BME280;20066;48.764;9.176;2023-07-20T04:42:32;98120.19;;;21.46;45.08
550;BME280;20066;48.764;9.176;2023-07-20T04:44:59;98116.34;;;21.62;45.10
550;BME280;20066;48.764;9.176;2023-07-20T04:47:27;98117.88;;;21.72;44.43
550;BME280;20066;48.764;9.176;2023-07-20T04:49:55;98113.63;;;21.07;45.49
550;BME280;20066;48.764;9.176;2023-07-20T04:52:23;98113.00;;;20.85;46.25
550;BME280;20066;48.764;9.176;2023-07-20T04:55:07;98118.44;;;21.76;44.80
550;BME280;20066;48.764;9.176;2023-07-20T04:57:37;98112.66;;;20.56;47.10
550;BME280;20066;48.764;9.176;2023-07-20T05:00:06;98110.91;;;21.44;45.28
550;BME280;20066;48.764;9.176;2023-07-20T05:02:34;98119.91;;;22.05;44.72
550;BME280;20066;48.764;9.176;2023-07-20T05:05:03;98126.28;;;22.11;44.19
550;BME280;20066;48.764;9.176;2023-07-20T05:07:32;98126.53;;;21.62;45.35
550;BME280;20066;48.764;9.176;2023-07-20T05:10:00;98119.59;;;21.33;46.09
550;BME280;20066;48.764;9.176;2023-07-20T05:12:28;98114.09;;;21.15;45.84
550;BME280;20066;48.764;9.176;2023-07-20T05:14:57;98118.75;;;21.78;44.73
550;BME280;20066;48.764;9.176;2023-07-20T05:17:25;98121.13;;;21.25;45.73
550;BME280;20066;48.764;9.176;2023-07-20T05:19:53;98118.31;;;20.98;46.91
550;BME280;20066;48.764;9.176;2023-07-20T05:22:21;98118.94;;;21.20;46.68
550;BME280;20066;48.764;9.176;2023-07-20T05:24:49;98122.00;;;21.22;46.58
550;BME280;20066;48.764;9.176;2023-07-20T05:27:17;98116.34;;;20.98;46.97
550;BME280;20066;48.764;9.176;2023-07-20T05:29:45;98120.88;;;21.65;45.64
550;BME280;20066;48.764;9.176;2023-07-20T05:32:15;98112.28;;;21.30;46.47
550;BME280;20066;48.764;9.176;2023-07-20T05:34:43;98107.53;;;20.85;47.12
550;BME280;20066;48.764;9.176;2023-07-20T05:37:10;98110.50;;;21.87;45.16
550;BME280;20066;48.764;9.176;2023-07-20T05:39:40;98119.41;;;21.37;45.99
550;BME280;20066;48.764;9.176;2023-07-20T05:42:08;98112.88;;;21.07;46.51
550;BME280;20066;48.764;9.176;2023-07-20T05:44:36;98118.94;;;21.11;47.04
550;BME280;20066;48.764;9.176;2023-07-20T05:47:07;98115.25;;;20.68;47.91
550;BME280;20066;48.764;9.176;2023-07-20T05:49:36;98113.59;;;20.89;47.57
550;BME280;20066;48.764;9.176;2023-07-20T05:52:05;98109.69;;;21.27;46.54
550;BME280;20066;48.764;9.176;2023-07-20T05:54:32;98111.13;;;21.82;45.82
550;BME280;20066;48.764;9.176;2023-07-20T05:57:00;98127.53;;;21.91;45.13
550;BME280;20066;48.764;9.176;2023-07-20T05:59:28;98119.22;;;21.68;45.67
550;BME280;20066;48.764;9.176;2023-07-20T06:01:57;98103.00;;;21.19;47.13
550;BME280;20066;48.764;9.176;2023-07-20T06:04:25;98118.97;;;21.47;46.19
550;BME280;20066;48.764;9.176;2023-07-20T06:06:54;98116.59;;;22.34;44.35
550;BME280;20066;48.764;9.176;2023-07-20T06:09:22;98118.97;;;21.38;45.90
550;BME280;20066;48.764;9.176;2023-07-20T06:11:49;98122.25;;;22.30;44.05
550;BME280;20066;48.764;9.176;2023-07-20T06:14:17;98122.88;;;22.25;44.07
550;BME280;20066;48.764;9.176;2023-07-20T06:16:46;98117.72;;;21.21;46.73
550;BME280;20066;48.764;9.176;2023-07-20T06:19:13;98122.28;;;21.06;47.11
550;BME280;20066;48.764;9.176;2023-07-20T06:21:41;98124.13;;;21.00;46.98
550;BME280;20066;48.764;9.176;2023-07-20T06:24:11;98125.66;;;21.46;46.82
550;BME280;20066;48.764;9.176;2023-07-20T06:26:38;98128.06;;;22.23;44.95
550;BME280;20066;48.764;9.176;2023-07-20T06:29:06;98125.47;;;21.23;46.79
550;BME280;20066;48.764;9.176;2023-07-20T06:31:36;98134.50;;;22.44;44.08
550;BME280;20066;48.764;9.176;2023-07-20T06:34:04;98125.03;;;22.21;44.40
550;BME280;20066;48.764;9.176;2023-07-20T06:36:32;98120.81;;;22.67;43.38
550;BME280;20066;48.764;9.176;2023-07-20T06:39:00;98119.94;;;22.61;43.57
550;BME280;20066;48.764;9.176;2023-07-20T06:41:33;98121.56;;;22.77;43.71
550;BME280;20066;48.764;9.176;2023-07-20T06:44:04;98126.53;;;22.88;44.90
550;BME280;20066;48.764;9.176;2023-07-20T06:46:32;98116.22;;;22.50;44.57
550;BME280;20066;48.764;9.176;2023-07-20T06:49:00;98127.66;;;22.81;44.86
550;BME280;20066;48.764;9.176;2023-07-20T06:51:30;98126.28;;;23.39;43.78
550;BME280;20066;48.764;9.176;2023-07-20T06:53:58;98122.63;;;22.14;45.71
550;BME280;20066;48.764;9.176;2023-07-20T06:56:26;98124.91;;;22.81;44.23
550;BME280;20066;48.764;9.176;2023-07-20T06:58:58;98132.03;;;22.88;44.30
550;BME280;20066;48.764;9.176;2023-07-20T07:01:26;98127.19;;;23.21;44.68
550;BME280;20066;48.764;9.176;2023-07-20T07:03:54;98123.13;;;22.36;45.68
550;BME280;20066;48.764;9.176;2023-07-20T07:06:23;98123.91;;;22.27;46.01
550;BME280;20066;48.764;9.176;2023-07-20T07:08:52;98121.81;;;22.88;44.47
550;BME280;20066;48.764;9.176;2023-07-20T07:11:20;98121.78;;;22.64;45.06
550;BME280;20066;48.764;9.176;2023-07-20T07:13:48;98111.44;;;22.59;44.53
550;BME280;20066;48.764;9.176;2023-07-20T07:16:19;98114.34;;;22.89;44.88
550;BME280;20066;48.764;9.176;2023-07-20T07:18:47;98116.03;;;22.86;44.46
550;BME280;20066;48.764;9.176;2023-07-20T07:21:16;98110.53;;;22.86;44.14
550;BME280;20066;48.764;9.176;2023-07-20T07:23:44;98111.03;;;22.19;45.71
550;BME280;20066;48.764;9.176;2023-07-20T07:26:13;98112.56;;;22.44;44.86
550;BME280;20066;48.764;9.176;2023-07-20T07:28:41;98107.78;;;23.25;43.17
550;BME280;20066;48.764;9.176;2023-07-20T07:31:09;98106.41;;;23.44;42.99
550;BME280;20066;48.764;9.176;2023-07-20T07:33:38;98102.94;;;23.73;41.64
550;BME280;20066;48.764;9.176;2023-07-20T07:36:06;98104.38;;;24.33;41.32
550;BME280;20066;48.764;9.176;2023-07-20T07:38:34;98105.03;;;23.10;42.91
550;BME280;20066;48.764;9.176;2023-07-20T07:41:22;98101.41;;;24.51;41.99
550;BME280;20066;48.764;9.176;2023-07-20T07:43:50;98098.56;;;24.10;43.26
550;BME280;20066;48.764;9.176;2023-07-20T07:46:17;98107.03;;;22.86;44.44
550;BME280;20066;48.764;9.176;2023-07-20T07:48:47;98107.28;;;22.40;46.34
550;BME280;20066;48.764;9.176;2023-07-20T07:51:15;98102.97;;;22.48;45.75
550;BME280;20066;48.764;9.176;2023-07-20T07:53:43;98099.44;;;23.43;43.79
550;BME280;20066;48.764;9.176;2023-07-20T07:56:11;98106.91;;;23.57;44.06
550;BME280;20066;48.764;9.176;2023-07-20T07:58:39;98093.31;;;23.98;40.87
550;BME280;20066;48.764;9.176;2023-07-20T08:01:07;98098.25;;;24.23;40.77
550;BME280;20066;48.764;9.176;2023-07-20T08:03:36;98103.34;;;24.65;40.39
550;BME280;20066;48.764;9.176;2023-07-20T08:06:07;98104.19;;;25.58;38.82
550;BME280;20066;48.764;9.176;2023-07-20T08:08:34;98105.69;;;24.92;37.35
550;BME280;20066;48.764;9.176;2023-07-20T08:11:03;98101.09;;;25.04;40.55
550;BME280;20066;48.764;9.176;2023-07-20T08:13:33;98104.47;;;24.38;39.07
550;BME280;20066;48.764;9.176;2023-07-20T08:16:02;98105.63;;;24.67;40.15
550;BME280;20066;48.764;9.176;2023-07-20T08:18:30;98094.56;;;25.02;38.69
550;BME280;20066;48.764;9.176;2023-07-20T08:20:58;98099.09;;;25.51;37.38
550;BME280;20066;48.764;9.176;2023-07-20T08:23:27;98092.59;;;23.83;40.42
550;BME280;20066;48.764;9.176;2023-07-20T08:25:55;98089.13;;;24.87;37.38
550;BME280;20066;48.764;9.176;2023-07-20T08:28:24;98092.75;;;24.99;38.02
550;BME280;20066;48.764;9.176;2023-07-20T08:30:53;98093.59;;;24.84;37.29
550;BME280;20066;48.764;9.176;2023-07-20T08:33:21;98090.72;;;25.65;37.38
550;BME280;20066;48.764;9.176;2023-07-20T08:35:50;98090.56;;;25.49;36.06
550;BME280;20066;48.764;9.176;2023-07-20T08:38:17;98090.94;;;24.55;37.12
550;BME280;20066;48.764;9.176;2023-07-20T08:40:47;98094.41;;;25.11;36.45
550;BME280;20066;48.764;9.176;2023-07-20T08:43:14;98094.47;;;25.68;37.14
550;BME280;20066;48.764;9.176;2023-07-20T08:45:45;98093.72;;;25.99;35.06
550;BME280;20066;48.764;9.176;2023-07-20T08:48:15;98090.75;;;25.71;37.90
550;BME280;20066;48.764;9.176;2023-07-20T08:50:43;98099.59;;;25.49;36.11
550;BME280;20066;48.764;9.176;2023-07-20T08:53:13;98095.25;;;24.41;37.73
550;BME280;20066;48.764;9.176;2023-07-20T08:55:42;98102.81;;;24.26;39.07
550;BME280;20066;48.764;9.176;2023-07-20T08:58:13;98099.19;;;24.05;38.65
550;BME280;20066;48.764;9.176;2023-07-20T09:00:43;98099.97;;;22.70;42.07
550;BME280;20066;48.764;9.176;2023-07-20T09:03:14;98092.66;;;24.03;39.83
550;BME280;20066;48.764;9.176;2023-07-20T09:05:42;98096.59;;;25.53;37.04
550;BME280;20066;48.764;9.176;2023-07-20T09:08:10;98090.13;;;25.82;35.83
550;BME280;20066;48.764;9.176;2023-07-20T09:10:38;98083.59;;;25.07;36.21
550;BME280;20066;48.764;9.176;2023-07-20T09:13:06;98080.16;;;24.92;35.55
550;BME280;20066;48.764;9.176;2023-07-20T09:15:37;98078.53;;;25.78;34.44
550;BME280;20066;48.764;9.176;2023-07-20T09:18:07;98074.38;;;25.10;35.80
550;BME280;20066;48.764;9.176;2023-07-20T09:20:36;98084.09;;;26.15;33.32
550;BME280;20066;48.764;9.176;2023-07-20T09:23:04;98088.13;;;25.82;32.71
550;BME280;20066;48.764;9.176;2023-07-20T09:25:36;98077.84;;;25.83;33.55
550;BME280;20066;48.764;9.176;2023-07-20T09:28:04;98081.09;;;27.14;32.58
550;BME280;20066;48.764;9.176;2023-07-20T09:30:32;98086.19;;;27.38;31.42
550;BME280;20066;48.764;9.176;2023-07-20T09:33:02;98081.06;;;26.55;31.71
550;BME280;20066;48.764;9.176;2023-07-20T09:35:31;98078.09;;;26.16;32.61
550;BME280;20066;48.764;9.176;2023-07-20T09:38:09;98083.59;;;27.18;32.75
550;BME280;20066;48.764;9.176;2023-07-20T09:40:40;98086.38;;;27.18;32.32
550;BME280;20066;48.764;9.176;2023-07-20T09:43:11;98098.13;;;26.54;33.13
550;BME280;20066;48.764;9.176;2023-07-20T09:45:42;98089.16;;;26.64;33.30
550;BME280;20066;48.764;9.176;2023-07-20T09:48:14;98088.84;;;27.05;31.89
550;BME280;20066;48.764;9.176;2023-07-20T09:50:49;98080.25;;;24.98;34.36
550;BME280;20066;48.764;9.176;2023-07-20T09:53:18;98082.44;;;26.28;33.75
550;BME280;20066;48.764;9.176;2023-07-20T09:55:47;98072.69;;;26.01;33.38
550;BME280;20066;48.764;9.176;2023-07-20T09:58:15;98067.94;;;26.02;33.32
550;BME280;20066;48.764;9.176;2023-07-20T10:00:44;98069.53;;;27.16;33.23
550;BME280;20066;48.764;9.176;2023-07-20T10:03:19;98072.66;;;28.02;32.10
550;BME280;20066;48.764;9.176;2023-07-20T10:05:52;98064.84;;;27.78;29.83
550;BME280;20066;48.764;9.176;2023-07-20T10:08:20;98076.22;;;26.87;31.41
550;BME280;20066;48.764;9.176;2023-07-20T10:10:54;98064.69;;;26.83;31.22
550;BME280;20066;48.764;9.176;2023-07-20T10:13:29;98083.56;;;26.53;32.19
550;BME280;20066;48.764;9.176;2023-07-20T10:16:01;98071.34;;;26.17;31.74
550;BME280;20066;48.764;9.176;2023-07-20T10:18:36;98063.75;;;26.49;31.85
550;BME280;20066;48.764;9.176;2023-07-20T10:21:06;98058.09;;;26.21;32.31
550;BME280;20066;48.764;9.176;2023-07-20T10:23:38;98053.19;;;26.42;32.93
550;BME280;20066;48.764;9.176;2023-07-20T10:26:07;98063.81;;;26.60;32.51
550;BME280;20066;48.764;9.176;2023-07-20T10:28:36;98055.53;;;27.42;30.59
550;BME280;20066;48.764;9.176;2023-07-20T10:31:07;98048.66;;;27.04;30.88
550;BME280;20066;48.764;9.176;2023-07-20T10:33:37;98051.28;;;27.63;30.41
550;BME280;20066;48.764;9.176;2023-07-20T10:36:06;98046.75;;;27.82;30.30
550;BME280;20066;48.764;9.176;2023-07-20T10:38:40;98045.19;;;28.31;30.62
550;BME280;20066;48.764;9.176;2023-07-20T10:41:18;98048.22;;;27.22;31.31
550;BME280;20066;48.764;9.176;2023-07-20T10:43:47;98039.94;;;27.22;29.42
550;BME280;20066;48.764;9.176;2023-07-20T10:46:33;98036.16;;;27.25;29.44
550;BME280;20066;48.764;9.176;2023-07-20T10:49:04;98037.47;;;25.80;33.35
550;BME280;20066;48.764;9.176;2023-07-20T10:51:39;98025.66;;;27.96;28.49
550;BME280;20066;48.764;9.176;2023-07-20T10:54:08;98030.69;;;27.92;28.30
550;BME280;20066;48.764;9.176;2023-07-20T10:56:36;98042.22;;;28.87;27.91
550;BME280;20066;48.764;9.176;2023-07-20T10:59:18;98037.94;;;27.39;28.55
550;BME280;20066;48.764;9.176;2023-07-20T11:01:47;98026.13;;;27.39;28.53
550;BME280;20066;48.764;9.176;2023-07-20T11:04:17;98034.94;;;27.82;28.02
550;BME280;20066;48.764;9.176;2023-07-20T11:06:46;98031.69;;;27.83;29.52
550;BME280;20066;48.764;9.176;2023-07-20T11:09:14;98027.47;;;28.62;26.61
550;BME280;20066;48.764;9.176;2023-07-20T11:11:44;98023.31;;;29.98;25.50
550;BME280;20066;48.764;9.176;2023-07-20T11:14:22;98028.81;;;29.43;26.65
550;BME280;20066;48.764;9.176;2023-07-20T11:16:52;98018.38;;;29.61;24.72
550;BME280;20066;48.764;9.176;2023-07-20T11:19:25;98022.91;;;27.51;26.68
550;BME280;20066;48.764;9.176;2023-07-20T11:21:56;98027.91;;;28.03;30.04
550;BME280;20066;48.764;9.176;2023-07-20T11:24:30;98025.13;;;27.81;26.79
550;BME280;20066;48.764;9.176;2023-07-20T11:26:59;98021.56;;;28.88;25.48
550;BME280;20066;48.764;9.176;2023-07-20T11:29:28;98017.22;;;29.45;25.41
550;BME280;20066;48.764;9.176;2023-07-20T11:32:00;98010.19;;;28.51;26.01
550;BME280;20066;48.764;9.176;2023-07-20T11:34:33;98009.69;;;28.41;25.59
550;BME280;20066;48.764;9.176;2023-07-20T11:37:02;98014.59;;;28.70;27.61
550;BME280;20066;48.764;9.176;2023-07-20T11:39:33;98004.28;;;27.85;26.69
550;BME280;20066;48.764;9.176;2023-07-20T11:42:02;98011.28;;;27.14;27.50
550;BME280;20066;48.764;9.176;2023-07-20T11:44:30;98012.03;;;27.20;28.57
550;BME280;20066;48.764;9.176;2023-07-20T11:47:02;98001.69;;;28.90;25.52
550;BME280;20066;48.764;9.176;2023-07-20T11:49:35;97998.38;;;29.38;24.99
550;BME280;20066;48.764;9.176;2023-07-20T11:52:05;98003.84;;;31.08;23.48
550;BME280;20066;48.764;9.176;2023-07-20T11:54:34;97993.09;;;30.80;23.05
550;BME280;20066;48.764;9.176;2023-07-20T11:57:03;97993.06;;;31.36;22.49
550;BME280;20066;48.764;9.176;2023-07-20T11:59:32;97986.59;;;30.10;24.71
550;BME280;20066;48.764;9.176;2023-07-20T12:02:00;97977.69;;;28.57;25.18
550;BME280;20066;48.764;9.176;2023-07-20T12:04:29;97984.63;;;29.51;26.00
550;BME280;20066;48.764;9.176;2023-07-20T12:06:58;97993.81;;;30.43;22.35
550;BME280;20066;48.764;9.176;2023-07-20T12:09:26;97981.09;;;29.80;24.22
550;BME280;20066;48.764;9.176;2023-07-20T12:12:14;97976.63;;;31.65;21.60
550;BME280;20066;48.764;9.176;2023-07-20T12:14:45;97972.97;;;33.64;22.05
550;BME280;20066;48.764;9.176;2023-07-20T12:17:13;97973.88;;;34.16;20.64
550;BME280;20066;48.764;9.176;2023-07-20T12:19:41;97974.59;;;32.10;21.83
550;BME280;20066;48.764;9.176;2023-07-20T12:22:10;97975.69;;;30.80;22.15
550;BME280;20066;48.764;9.176;2023-07-20T12:24:38;97975.13;;;29.71;24.46
550;BME280;20066;48.764;9.176;2023-07-20T12:27:12;97961.13;;;28.46;24.30
550;BME280;20066;48.764;9.176;2023-07-20T12:29:45;97964.25;;;28.72;24.63
550;BME280;20066;48.764;9.176;2023-07-20T12:32:12;97961.25;;;29.11;24.00
550;BME280;20066;48.764;9.176;2023-07-20T12:34:40;97966.41;;;28.44;24.92
550;BME280;20066;48.764;9.176;2023-07-20T12:37:08;97964.66;;;30.55;25.09
550;BME280;20066;48.764;9.176;2023-07-20T12:39:39;97954.88;;;32.82;21.89
550;BME280;20066;48.764;9.176;2023-07-20T12:42:13;97955.47;;;31.62;21.93
550;BME280;20066;48.764;9.176;2023-07-20T12:44:43;97947.75;;;30.53;23.72
550;BME280;20066;48.764;9.176;2023-07-20T12:47:11;97952.22;;;30.56;23.46
550;BME280;20066;48.764;9.176;2023-07-20T12:49:39;97949.88;;;30.66;23.08
550;BME280;20066;48.764;9.176;2023-07-20T12:52:16;97947.38;;;32.30;22.03
550;BME280;20066;48.764;9.176;2023-07-20T12:54:49;97946.81;;;32.44;20.88
550;BME280;20066;48.764;9.176;2023-07-20T12:57:19;97943.00;;;31.36;21.73
550;BME280;20066;48.764;9.176;2023-07-20T12:59:51;97938.75;;;30.66;22.58
550;BME280;20066;48.764;9.176;2023-07-20T13:02:19;97935.69;;;29.83;23.28
550;BME280;20066;48.764;9.176;2023-07-20T13:04:47;97936.78;;;30.23;23.83
550;BME280;20066;48.764;9.176;2023-07-20T13:07:15;97938.06;;;29.98;22.57
550;BME280;20066;48.764;9.176;2023-07-20T13:09:46;97927.25;;;32.24;20.65
550;BME280;20066;48.764;9.176;2023-07-20T13:12:15;97921.03;;;32.04;20.92
550;BME280;20066;48.764;9.176;2023-07-20T13:14:43;97914.78;;;30.63;21.93
550;BME280;20066;48.764;9.176;2023-07-20T13:17:11;97920.25;;;32.43;21.15
550;BME280;20066;48.764;9.176;2023-07-20T13:19:38;97924.56;;;32.65;20.57
550;BME280;20066;48.764;9.176;2023-07-20T13:22:06;97929.47;;;33.06;20.27
550;BME280;20066;48.764;9.176;2023-07-20T13:24:34;97926.44;;;32.49;21.01
550;BME280;20066;48.764;9.176;2023-07-20T13:27:03;97920.63;;;32.61;20.57
550;BME280;20066;48.764;9.176;2023-07-20T13:29:32;97925.66;;;32.62;21.51
550;BME280;20066;48.764;9.176;2023-07-20T13:32:00;97929.03;;;31.55;21.37
550;BME280;20066;48.764;9.176;2023-07-20T13:34:29;97928.56;;;31.06;22.14